Flight Track Log - Related Links

Times and Time Zones

All times are in EDT time to prevent confusion due to time zone crossing. See the N99AZ flight status page for this flight to view local times or setup timezone preferences in your user account.

Time Position Orientation Groundspeed Altitude Reporting Facility
EDT Latitude Longitude Course Direction KTS MPH feet Rate Location/Type
Fri 01:42:30 PM 37.9583 -122.0736 70° East 76 87 900  Level Oakland Center
Fri 01:43:31 PM 37.9644 -122.0525 70° East 89 102 1,500 634 Climbing Oakland Center
Fri 01:44:33 PM 37.9844 -122.0511 North 77 89 2,200 629 Climbing Oakland Center
Fri 01:45:35 PM 38.0056 -122.0481 North 75 86 2,800 581 Climbing Oakland Center
Fri 01:46:37 PM 38.0269 -122.0453 North 76 87 3,400 488 Climbing Oakland Center
Fri 01:47:38 PM 38.0486 -122.0381 15° North 81 93 3,800 439 Climbing Oakland Center
Fri 01:48:40 PM 38.0472 -122.0042 93° East 93 107 4,300 484 Climbing Oakland Center
Fri 01:49:42 PM 38.0483 -121.9689 88° East 99 114 4,800 390 Climbing Oakland Center
Fri 01:50:43 PM 38.0497 -121.9239 88° East 104 120 5,100 98 Climbing Oakland Center
Fri 01:51:45 PM 38.0522 -121.8758 86° East 126 145 5,000 -48 Descending Oakland Center
Fri 01:52:47 PM 38.0528 -121.8272 89° East 135 155 5,000 -48 Level Oakland Center
Fri 01:53:49 PM 38.0542 -121.7775 88° East 139 160 4,900 -49 Descending Oakland Center
Fri 01:54:50 PM 38.0561 -121.7275 87° East 142 163 4,900  Level Oakland Center
Fri 01:55:52 PM 38.0575 -121.6775 88° East 142 163 4,900  Level Oakland Center
Fri 01:56:54 PM 38.0467 -121.6308 106° East 137 158 4,900  Level Oakland Center
Fri 01:57:55 PM 38.0314 -121.5761 110° East 138 159 4,900  Level Oakland Center
Fri 01:58:57 PM 38.0186 -121.5300 109° East 139 160 4,900 48 Level Oakland Center
Fri 01:59:59 PM 38.0056 -121.4831 109° East 139 160 5,000 -49 Climbing Oakland Center
Fri 02:01:00 PM 37.9914 -121.4408 113° Southeast 133 153 4,800 -244 Descending Oakland Center
Fri 02:02:02 PM 37.9708 -121.3978 121° Southeast 139 160 4,500 -340 Descending Oakland Center
Fri 02:03:21 PM 37.9500 -121.3333 112° Southeast 145 167 4,000 -259 Descending Northern Cal TRACON
Fri 02:04:21 PM 37.9167 -121.3167 158° South 131 151 3,900 -50 Descending Northern Cal TRACON
Fri 02:05:21 PM 37.8833 -121.2833 142° Southeast 130 150 3,900  Level Northern Cal TRACON
Fri 02:06:21 PM 37.8500 -121.2667 158° South 131 151 3,900 50 Level Northern Cal TRACON
Fri 02:07:21 PM 37.8333 -121.2333 122° Southeast 131 151 4,000 -173 Climbing Northern Cal TRACON
Fri 02:09:14 PM 37.7892 -121.1578 126° Southeast 142 163 3,400 -379 Descending Oakland Center
Fri 02:10:15 PM 37.7681 -121.1142 121° Southeast 146 168 2,900 -439 Descending Oakland Center
Fri 02:11:17 PM 37.7822 -121.0681 69° East 141 162 2,500 -435 Descending Oakland Center
Fri 02:12:19 PM 37.8061 -121.0386 44° Northeast 147 169 2,000 -244 Descending Oakland Center
Fri 02:13:20 PM 37.8125 -121.0756 282° West 125 144 2,000 -146 Level Oakland Center
Fri 02:14:22 PM 37.8192 -121.1169 282° West 110 127 1,700 -387 Descending Oakland Center
Fri 02:15:24 PM 37.8347 -121.1414 309° West 96 110 1,200 -293 Descending Oakland Center
Fri 02:16:25 PM 37.8494 -121.1656 308° West 91 105 1,100 -290 Descending Oakland Center
Fri 02:17:28 PM 37.8667 -121.2000 302° West 97 112 600 -439 Descending Northern Cal TRACON
Fri 02:18:28 PM 37.8833 -121.2167 322° Northwest 96 110 200 150 Descending Northern Cal TRACON
Fri 02:19:28 PM 37.9000 -121.2500 302° West 100 115 900 600 Climbing Northern Cal TRACON
Fri 02:20:28 PM 37.9333 -121.2333 22° Northeast 101 116 1,400 550 Climbing Northern Cal TRACON
Fri 02:21:28 PM 37.9500 -121.2333 360° North 94 108 2,000 526 Climbing Northern Cal TRACON
Fri 02:22:22 PM 37.9667 -121.2500 322° Northwest 89 102 2,400 526 Climbing Northern Cal TRACON
Fri 02:23:22 PM 37.9833 -121.2667 322° Northwest 92 106 3,000 550 Climbing Northern Cal TRACON
Fri 02:24:22 PM 38.0167 -121.2667 360° North 97 112 3,500 500 Climbing Northern Cal TRACON
Fri 02:25:22 PM 38.0333 -121.2833 322° Northwest 96 110 4,000 238 Climbing Northern Cal TRACON
Fri 02:26:28 PM 38.0000 -121.2667 158° South 119 137 4,000  Level Northern Cal TRACON
Fri 02:27:22 PM 37.9667 -121.2500 158° South 132 152 4,000  Level Northern Cal TRACON
Fri 02:28:28 PM 38.0000 -121.2333 22° Northeast 142 163 4,000  Level Northern Cal TRACON
Fri 02:29:23 PM 38.0333 -121.2667 322° Northwest 132 152 4,000  Level Northern Cal TRACON
Fri 02:30:23 PM 38.0500 -121.3000 302° West 132 152 4,000 -100 Level Northern Cal TRACON
Fri 02:31:23 PM 38.0667 -121.3333 302° West 138 159 3,800 -200 Descending Northern Cal TRACON

Login

Don't have an account? Register now (free) for customized features, flight alerts, and more!